createdAt,value
2018-01-17T00:01:34.811Z,2.93
2018-01-17T00:04:02.286Z,3.00
2018-01-17T00:06:29.736Z,2.90
2018-01-17T00:08:57.200Z,2.80
2018-01-17T00:11:25.416Z,2.50
2018-01-17T00:13:52.838Z,2.50
2018-01-17T00:16:20.271Z,1.83
2018-01-17T00:18:47.707Z,1.80
2018-01-17T00:21:15.127Z,1.90
2018-01-17T00:23:42.546Z,2.20
2018-01-17T00:26:09.983Z,1.67
2018-01-17T00:28:38.174Z,1.70
2018-01-17T00:31:06.375Z,1.30
2018-01-17T00:33:34.567Z,1.20
2018-01-17T00:36:02.770Z,1.40
2018-01-17T00:38:30.963Z,1.13
2018-01-17T00:40:59.180Z,1.00
2018-01-17T00:43:27.355Z,1.30
2018-01-17T00:45:55.558Z,1.00
2018-01-17T00:48:23.751Z,0.90
2018-01-17T00:50:51.183Z,1.00
2018-01-17T00:53:18.610Z,1.10
2018-01-17T00:55:46.047Z,0.80
2018-01-17T00:58:13.470Z,0.80
2018-01-17T01:00:40.906Z,0.80
2018-01-17T01:03:08.327Z,1.10
2018-01-17T01:05:35.762Z,0.90
2018-01-17T01:08:03.183Z,1.00
2018-01-17T01:10:30.614Z,1.10
2018-01-17T01:12:58.042Z,1.07
2018-01-17T01:15:25.475Z,1.57
2018-01-17T01:17:52.899Z,0.80
2018-01-17T01:20:20.334Z,1.00
2018-01-17T01:22:47.768Z,1.20
2018-01-17T01:25:15.191Z,0.80
2018-01-17T01:27:42.619Z,1.07
2018-01-17T01:30:10.088Z,0.70
2018-01-17T01:32:37.545Z,0.70
2018-01-17T01:35:05.008Z,0.90
2018-01-17T01:37:32.460Z,0.60
2018-01-17T01:39:59.882Z,0.50
2018-01-17T01:42:27.353Z,0.60
2018-01-17T01:44:54.821Z,0.73
2018-01-17T01:47:23.036Z,0.53
2018-01-17T01:49:50.496Z,0.57
2018-01-17T01:52:18.724Z,0.50
2018-01-17T01:54:46.189Z,0.60
2018-01-17T01:57:14.405Z,0.50
2018-01-17T01:59:41.865Z,0.60
2018-01-17T02:02:10.084Z,0.53
2018-01-17T02:04:37.554Z,0.50
2018-01-17T02:07:05.013Z,0.60
2018-01-17T02:09:33.245Z,0.70
2018-01-17T02:12:00.703Z,0.50
2018-01-17T02:14:28.938Z,0.53
2018-01-17T02:16:56.397Z,0.63
2018-01-17T02:19:23.819Z,0.63
2018-01-17T02:21:51.251Z,0.70
2018-01-17T02:24:18.679Z,0.60
2018-01-17T02:26:46.116Z,0.70
2018-01-17T02:29:13.535Z,0.80
2018-01-17T02:31:41.739Z,0.90
2018-01-17T02:34:09.168Z,0.70
2018-01-17T02:36:36.599Z,0.80
2018-01-17T02:39:04.031Z,0.80
2018-01-17T02:41:31.463Z,1.20
2018-01-17T02:43:58.899Z,1.10
2018-01-17T02:46:26.335Z,0.80
2018-01-17T02:48:53.763Z,0.90
2018-01-17T02:51:21.199Z,0.80
2018-01-17T02:53:48.631Z,0.90
2018-01-17T02:56:16.064Z,0.90
2018-01-17T02:58:43.490Z,0.90
2018-01-17T03:01:10.922Z,0.90
2018-01-17T03:03:38.342Z,0.90
2018-01-17T03:06:05.831Z,0.93
2018-01-17T03:08:33.241Z,0.77
2018-01-17T03:11:00.672Z,0.83
2018-01-17T03:13:28.100Z,0.80
2018-01-17T03:15:55.535Z,0.80
2018-01-17T03:18:22.962Z,0.77
2018-01-17T03:20:50.395Z,0.50
2018-01-17T03:23:17.823Z,0.50
2018-01-17T03:25:45.254Z,0.60
2018-01-17T03:28:12.683Z,0.60
2018-01-17T03:30:40.120Z,0.70
2018-01-17T03:33:07.546Z,0.60
2018-01-17T03:35:34.988Z,0.50
2018-01-17T03:38:02.414Z,0.60
2018-01-17T03:40:29.847Z,0.50
2018-01-17T03:42:57.275Z,0.67
2018-01-17T03:45:24.707Z,0.60
2018-01-17T03:47:52.135Z,0.60
2018-01-17T03:50:19.579Z,0.50
2018-01-17T03:52:47.007Z,0.50
2018-01-17T03:55:20.818Z,0.60
2018-01-17T03:57:48.247Z,0.53
2018-01-17T04:00:16.448Z,0.57
2018-01-17T04:02:44.648Z,0.80
2018-01-17T04:05:12.854Z,0.62
2018-01-17T04:07:40.285Z,0.88
2018-01-17T04:10:07.728Z,1.20
2018-01-17T04:12:35.156Z,9.83
2018-01-17T04:15:02.598Z,24.92
2018-01-17T04:17:30.044Z,31.75
2018-01-17T04:19:58.246Z,7.83
2018-01-17T04:22:25.687Z,1.40
2018-01-17T04:24:53.115Z,0.70
2018-01-17T04:27:20.554Z,0.70
2018-01-17T04:29:47.979Z,0.70
2018-01-17T04:32:15.416Z,0.70
2018-01-17T04:34:42.851Z,0.80
2018-01-17T04:37:10.283Z,0.60
2018-01-17T04:39:37.712Z,0.70
2018-01-17T04:42:05.159Z,0.80
2018-01-17T04:44:33.364Z,0.70
2018-01-17T04:47:01.559Z,0.70
2018-01-17T04:49:29.755Z,0.80
2018-01-17T04:51:57.951Z,0.90
2018-01-17T04:54:26.147Z,0.70
2018-01-17T04:56:54.351Z,1.00
2018-01-17T04:59:22.562Z,1.00
2018-01-17T05:01:49.999Z,0.80
2018-01-17T05:04:17.427Z,0.80
2018-01-17T05:06:44.867Z,0.90
2018-01-17T05:09:12.302Z,1.10
2018-01-17T05:11:39.740Z,0.80
2018-01-17T05:14:07.168Z,0.70
2018-01-17T05:16:34.603Z,0.90
2018-01-17T05:19:02.799Z,0.80
2018-01-17T05:21:31.003Z,1.77
2018-01-17T05:23:59.190Z,0.98
2018-01-17T05:26:26.622Z,2.50
2018-01-17T05:28:54.072Z,0.90
2018-01-17T05:31:22.269Z,1.00
2018-01-17T05:33:50.468Z,0.80
2018-01-17T05:36:18.672Z,0.80
2018-01-17T05:38:46.876Z,0.80
2018-01-17T05:41:14.310Z,0.80
2018-01-17T05:43:41.781Z,0.80
2018-01-17T05:46:09.231Z,0.80
2018-01-17T05:48:36.671Z,0.75
2018-01-17T05:51:05.278Z,0.60
2018-01-17T05:53:32.718Z,0.70
2018-01-17T05:56:00.164Z,0.90
2018-01-17T05:58:28.372Z,0.70
2018-01-17T06:00:55.809Z,0.75
2018-01-17T06:03:23.243Z,0.82
2018-01-17T06:05:50.675Z,0.73
2018-01-17T06:08:18.130Z,0.60
2018-01-17T06:10:45.574Z,0.60
2018-01-17T06:13:13.775Z,0.60
2018-01-17T06:15:41.198Z,0.47
2018-01-17T06:18:08.626Z,0.40
2018-01-17T06:20:36.074Z,0.50
2018-01-17T06:23:03.498Z,0.50
2018-01-17T06:25:30.948Z,0.60
2018-01-17T06:27:59.147Z,1.17
2018-01-17T06:30:27.362Z,0.70
2018-01-17T06:32:54.791Z,1.25
2018-01-17T06:35:22.226Z,0.90
2018-01-17T06:37:49.655Z,0.80
2018-01-17T06:40:17.108Z,0.80
2018-01-17T06:42:44.544Z,1.00
2018-01-17T06:45:11.966Z,0.90
2018-01-17T06:47:39.419Z,0.80
2018-01-17T06:50:07.643Z,1.05
2018-01-17T06:52:35.081Z,1.30
2018-01-17T06:55:02.529Z,1.00
2018-01-17T06:57:29.950Z,1.40
2018-01-17T06:59:58.146Z,0.97
2018-01-17T07:02:26.349Z,2.50
2018-01-17T07:04:54.542Z,1.62
2018-01-17T07:07:22.738Z,1.40
2018-01-17T07:09:50.959Z,3.20
2018-01-17T07:12:19.163Z,4.03
2018-01-17T07:14:46.615Z,3.40
2018-01-17T07:17:14.059Z,4.45
2018-01-17T07:19:41.487Z,4.10
2018-01-17T07:22:09.686Z,1.90
2018-01-17T07:24:37.896Z,1.40
2018-01-17T07:27:05.335Z,1.40
2018-01-17T07:29:32.771Z,0.90
2018-01-17T07:32:00.203Z,0.90
2018-01-17T07:34:27.648Z,0.88
2018-01-17T07:36:55.080Z,1.12
2018-01-17T07:39:22.514Z,1.00
2018-01-17T07:41:49.967Z,0.80
2018-01-17T07:44:17.398Z,0.80
2018-01-17T07:46:44.826Z,1.10
2018-01-17T07:49:12.286Z,1.10
2018-01-17T07:51:39.707Z,0.90
2018-01-17T07:54:07.139Z,0.80
2018-01-17T07:56:35.342Z,1.00
2018-01-17T07:59:03.577Z,1.00
2018-01-17T08:01:30.999Z,1.02
2018-01-17T08:03:58.431Z,1.37
2018-01-17T08:06:25.879Z,1.40
2018-01-17T08:08:54.132Z,1.27
2018-01-17T08:11:22.284Z,1.05
2018-01-17T08:13:50.494Z,0.90
2018-01-17T08:16:18.674Z,1.00
2018-01-17T08:18:46.875Z,1.00
2018-01-17T08:21:15.084Z,1.10
2018-01-17T08:23:43.284Z,1.20
2018-01-17T08:26:11.500Z,1.20
2018-01-17T08:28:38.936Z,2.75
2018-01-17T08:31:06.372Z,1.80
2018-01-17T08:33:33.819Z,1.00
2018-01-17T08:36:02.024Z,1.20
2018-01-17T08:38:29.450Z,1.37
2018-01-17T08:40:56.899Z,1.62
2018-01-17T08:43:24.332Z,1.30
2018-01-17T08:45:51.767Z,0.90
2018-01-17T08:48:19.207Z,0.80
2018-01-17T08:50:47.423Z,0.80
2018-01-17T08:53:14.860Z,1.00
2018-01-17T08:55:42.307Z,1.20
2018-01-17T08:58:09.747Z,0.90
2018-01-17T09:00:37.162Z,0.80
2018-01-17T09:03:04.610Z,0.90
2018-01-17T09:05:32.811Z,0.75
2018-01-17T09:08:01.022Z,0.70
2018-01-17T09:10:29.218Z,0.80
2018-01-17T09:12:57.419Z,0.77
2018-01-17T09:15:24.851Z,0.77
2018-01-17T09:17:52.291Z,0.70
2018-01-17T09:20:19.724Z,0.70
2018-01-17T09:22:47.172Z,1.60
2018-01-17T09:25:14.603Z,0.80
2018-01-17T09:27:42.798Z,0.80
2018-01-17T09:30:10.232Z,1.20
2018-01-17T09:32:37.672Z,1.10
2018-01-17T09:35:05.884Z,0.80
2018-01-17T09:37:34.083Z,0.80
2018-01-17T09:40:01.516Z,0.80
2018-01-17T09:45:02.942Z,0.75
2018-01-17T09:47:30.384Z,0.90
2018-01-17T09:49:57.820Z,1.00
2018-01-17T09:52:26.039Z,0.70
2018-01-17T09:54:53.471Z,0.90
2018-01-17T09:57:20.904Z,0.90
2018-01-17T09:59:48.335Z,1.50
2018-01-17T10:02:15.776Z,0.90
2018-01-17T10:04:43.213Z,0.80
2018-01-17T10:07:10.645Z,1.37
2018-01-17T10:09:38.066Z,0.80
2018-01-17T10:12:05.528Z,0.82
2018-01-17T10:14:32.955Z,0.90
2018-01-17T10:17:01.154Z,1.12
2018-01-17T10:19:28.587Z,1.10
2018-01-17T10:21:56.030Z,1.00
2018-01-17T10:24:23.478Z,0.90
2018-01-17T10:26:50.899Z,1.13
2018-01-17T10:29:18.374Z,1.00
2018-01-17T10:31:45.820Z,1.10
2018-01-17T10:34:14.014Z,1.00
2018-01-17T10:36:41.465Z,1.20
2018-01-17T10:39:08.927Z,1.27
2018-01-17T10:41:36.500Z,0.90
2018-01-17T10:44:03.924Z,1.02
2018-01-17T10:46:31.359Z,0.90
2018-01-17T10:48:58.812Z,1.00
2018-01-17T10:51:27.006Z,1.00
2018-01-17T10:53:55.198Z,0.90
2018-01-17T10:56:23.407Z,1.50
2018-01-17T10:58:51.598Z,1.60
2018-01-17T11:01:19.808Z,1.27
2018-01-17T11:03:48.008Z,1.20
2018-01-17T11:06:16.215Z,0.80
2018-01-17T11:08:43.650Z,0.95
2018-01-17T11:11:11.126Z,0.73
2018-01-17T11:13:38.555Z,0.70
2018-01-17T11:16:06.742Z,0.87
2018-01-17T11:18:34.955Z,1.20
2018-01-17T11:21:02.374Z,2.13
2018-01-17T11:23:29.809Z,0.70
2018-01-17T11:25:57.994Z,0.53
2018-01-17T11:28:26.194Z,0.50
2018-01-17T11:30:54.392Z,0.67
2018-01-17T11:33:22.596Z,0.70
2018-01-17T11:35:50.804Z,0.50
2018-01-17T11:38:19.005Z,0.70
2018-01-17T11:40:46.432Z,0.50
2018-01-17T11:43:13.868Z,0.50
2018-01-17T11:45:41.300Z,0.50
2018-01-17T11:48:08.735Z,0.60
2018-01-17T11:50:36.167Z,0.60
2018-01-17T11:53:03.608Z,0.73
2018-01-17T11:55:31.035Z,0.60
2018-01-17T11:57:58.471Z,0.70
2018-01-17T12:00:25.959Z,0.60
2018-01-17T12:02:53.391Z,0.70
2018-01-17T12:05:21.578Z,0.57
2018-01-17T12:07:49.010Z,0.67
2018-01-17T12:10:16.447Z,0.70
2018-01-17T12:12:44.652Z,0.90
2018-01-17T12:15:12.843Z,0.50
2018-01-17T12:17:41.039Z,0.70
2018-01-17T12:20:08.469Z,0.80
2018-01-17T12:22:35.911Z,0.75
2018-01-17T12:25:04.116Z,0.80
2018-01-17T12:27:32.315Z,1.70
2018-01-17T12:30:00.528Z,0.93
2018-01-17T12:32:27.970Z,1.02
2018-01-17T12:34:55.394Z,1.10
2018-01-17T12:37:22.885Z,1.10
2018-01-17T12:39:50.323Z,2.40
2018-01-17T12:42:18.527Z,1.10
2018-01-17T12:44:46.749Z,1.10
2018-01-17T12:47:14.183Z,1.00
2018-01-17T12:49:41.664Z,1.60
2018-01-17T12:52:09.127Z,1.10
2018-01-17T12:54:36.571Z,1.00
2018-01-17T12:57:04.044Z,0.88
2018-01-17T12:59:31.482Z,1.00
2018-01-17T13:01:58.985Z,1.42
2018-01-17T13:04:26.443Z,1.30
2018-01-17T13:06:53.877Z,1.15
2018-01-17T13:09:21.308Z,1.00
2018-01-17T13:11:48.754Z,1.10
2018-01-17T13:14:16.265Z,0.98
2018-01-17T13:16:43.672Z,1.10
2018-01-17T13:19:11.111Z,0.80
2018-01-17T13:21:38.548Z,1.10
2018-01-17T13:24:06.747Z,1.00
2018-01-17T13:26:34.180Z,0.80
2018-01-17T13:29:01.630Z,0.80
2018-01-17T13:31:29.059Z,0.90
2018-01-17T13:33:56.495Z,1.00
2018-01-17T13:36:23.935Z,1.00
2018-01-17T13:38:52.144Z,0.80
2018-01-17T13:41:20.330Z,0.90
2018-01-17T13:43:48.568Z,1.20
2018-01-17T13:46:16.055Z,2.30
2018-01-17T13:48:43.495Z,3.70
2018-01-17T13:51:11.697Z,1.20
2018-01-17T13:53:39.900Z,4.10
2018-01-17T13:56:08.099Z,1.50
2018-01-17T13:58:35.536Z,2.75
2018-01-17T14:01:02.972Z,3.87
2018-01-17T14:03:30.419Z,2.58
2018-01-17T14:05:58.628Z,1.30
2018-01-17T14:08:26.826Z,1.77
2018-01-17T14:10:55.018Z,1.75
2018-01-17T14:13:23.227Z,1.60
2018-01-17T14:15:51.423Z,2.50
2018-01-17T14:18:19.652Z,2.60
2018-01-17T14:20:47.083Z,2.12
2018-01-17T14:23:14.510Z,2.30
2018-01-17T14:25:41.934Z,1.27
2018-01-17T14:28:09.379Z,1.70
2018-01-17T14:30:36.807Z,1.27
2018-01-17T14:33:04.243Z,1.50
2018-01-17T14:35:31.673Z,1.23
2018-01-17T14:37:59.108Z,1.37
2018-01-17T14:40:26.538Z,1.40
2018-01-17T14:43:00.379Z,1.60
2018-01-17T14:45:28.566Z,1.80
2018-01-17T14:47:56.771Z,1.30
2018-01-17T14:50:24.968Z,2.20
2018-01-17T14:52:53.166Z,1.53
2018-01-17T14:55:21.363Z,1.97
2018-01-17T14:57:49.690Z,2.10
2018-01-17T15:00:17.123Z,1.53
2018-01-17T15:02:44.571Z,1.33
2018-01-17T15:05:12.014Z,1.60
2018-01-17T15:07:40.212Z,1.93
2018-01-17T15:10:08.418Z,1.90
2018-01-17T15:12:36.612Z,1.70
2018-01-17T15:15:04.815Z,2.00
2018-01-17T15:17:33.008Z,2.47
2018-01-17T15:20:01.208Z,2.37
2018-01-17T15:22:29.398Z,2.70
2018-01-17T15:24:57.605Z,2.83
2018-01-17T15:27:25.884Z,2.33
2018-01-17T15:29:53.318Z,2.70
2018-01-17T15:32:20.742Z,2.10
2018-01-17T15:34:48.183Z,2.00
2018-01-17T15:37:15.615Z,2.43
2018-01-17T15:39:43.815Z,3.10
2018-01-17T15:42:12.049Z,1.50
2018-01-17T15:44:39.651Z,1.93
2018-01-17T15:47:07.913Z,1.40
2018-01-17T15:49:35.388Z,2.20
2018-01-17T15:52:04.439Z,1.33
2018-01-17T15:54:32.593Z,1.43
2018-01-17T15:57:00.813Z,1.50
2018-01-17T15:59:29.019Z,1.93
2018-01-17T16:01:56.471Z,1.80
2018-01-17T16:04:23.978Z,1.50
2018-01-17T16:06:51.405Z,1.30
2018-01-17T16:09:18.858Z,2.30
2018-01-17T16:11:46.332Z,2.13
2018-01-17T16:14:14.761Z,1.13
2018-01-17T16:16:42.186Z,1.60
2018-01-17T16:19:10.392Z,1.80
2018-01-17T16:21:38.642Z,1.63
2018-01-17T16:24:06.095Z,1.73
2018-01-17T16:26:33.535Z,2.77
2018-01-17T16:29:01.009Z,3.27
2018-01-17T16:31:28.455Z,2.70
2018-01-17T16:33:55.874Z,2.03
2018-01-17T16:36:23.304Z,1.70
2018-01-17T16:38:50.754Z,3.33
2018-01-17T16:41:18.946Z,2.60
2018-01-17T16:43:47.155Z,1.70
2018-01-17T16:46:15.347Z,2.63
2018-01-17T16:48:43.579Z,3.67
2018-01-17T16:51:11.006Z,3.70
2018-01-17T16:53:38.448Z,2.97
2018-01-17T16:56:05.878Z,4.43
2018-01-17T16:58:34.470Z,2.30
2018-01-17T17:01:01.903Z,1.70
2018-01-17T17:03:29.335Z,1.43
2018-01-17T17:05:56.784Z,1.70
2018-01-17T17:08:24.251Z,1.93
2018-01-17T17:10:51.682Z,1.70
2018-01-17T17:13:19.177Z,1.67
2018-01-17T17:15:47.392Z,1.90
2018-01-17T17:18:14.828Z,1.73
2018-01-17T17:20:42.471Z,1.90
2018-01-17T17:23:09.898Z,2.07
2018-01-17T17:25:37.322Z,1.80
2018-01-17T17:28:04.754Z,1.63
2018-01-17T17:30:32.189Z,2.33
2018-01-17T17:32:59.682Z,1.63
2018-01-17T17:35:27.128Z,1.90
2018-01-17T17:37:55.350Z,1.67
2018-01-17T17:40:22.827Z,2.03
2018-01-17T17:42:50.246Z,1.90
2018-01-17T17:45:17.687Z,1.20
2018-01-17T17:47:45.123Z,1.40
2018-01-17T17:50:12.551Z,1.20
2018-01-17T17:52:40.021Z,3.30
2018-01-17T17:55:08.213Z,2.73
2018-01-17T17:57:35.665Z,1.73
2018-01-17T18:00:03.117Z,3.73
2018-01-17T18:02:30.543Z,3.97
2018-01-17T18:04:58.738Z,2.10
2018-01-17T18:07:26.958Z,1.93
2018-01-17T18:09:54.387Z,2.53
2018-01-17T18:12:21.823Z,2.50
2018-01-17T18:14:49.251Z,2.30
2018-01-17T18:17:16.703Z,2.23
2018-01-17T18:19:44.135Z,2.87
2018-01-17T18:22:12.380Z,2.80
2018-01-17T18:24:39.824Z,4.63
2018-01-17T18:27:08.029Z,2.73
2018-01-17T18:29:36.327Z,2.90
2018-01-17T18:32:04.516Z,2.57
2018-01-17T18:34:32.718Z,3.57
2018-01-17T18:37:00.921Z,2.80
2018-01-17T18:39:29.123Z,3.00
2018-01-17T18:41:57.339Z,2.63
2018-01-17T18:44:24.763Z,3.20
2018-01-17T18:46:52.195Z,6.50
2018-01-17T18:49:19.623Z,2.67
2018-01-17T18:51:47.067Z,2.10
2018-01-17T18:54:14.486Z,2.47
2018-01-17T18:56:41.931Z,2.40
2018-01-17T18:59:09.350Z,2.03
2018-01-17T19:01:36.787Z,2.60
2018-01-17T19:04:04.216Z,2.27
2018-01-17T19:06:31.656Z,2.67
2018-01-17T19:08:59.083Z,2.77
2018-01-17T19:11:26.508Z,2.30
2018-01-17T19:13:53.943Z,2.90
2018-01-17T19:16:22.143Z,2.77
2018-01-17T19:18:50.347Z,2.50
2018-01-17T19:21:18.544Z,2.57
2018-01-17T19:23:46.043Z,1.67
2018-01-17T19:26:13.458Z,1.93
2018-01-17T19:28:40.895Z,2.80
2018-01-17T19:31:08.329Z,1.87
2018-01-17T19:33:35.780Z,1.50
2018-01-17T19:36:03.207Z,2.33
2018-01-17T19:38:30.635Z,2.70
2018-01-17T19:40:58.074Z,3.47
2018-01-17T19:43:25.499Z,2.90
2018-01-17T19:45:52.935Z,3.60
2018-01-17T19:48:20.380Z,2.60
2018-01-17T19:50:47.810Z,2.57
2018-01-17T19:53:16.022Z,2.73
2018-01-17T19:55:43.459Z,2.90
2018-01-17T19:58:11.758Z,3.00
2018-01-17T20:00:39.189Z,3.50
2018-01-17T20:03:06.611Z,2.93
2018-01-17T20:05:34.097Z,2.60
2018-01-17T20:08:01.517Z,2.43
2018-01-17T20:10:29.719Z,2.50
2018-01-17T20:12:57.193Z,2.80
2018-01-17T20:15:25.387Z,3.00
2018-01-17T20:17:53.583Z,2.33
2018-01-17T20:20:21.783Z,2.37
2018-01-17T20:22:55.815Z,2.17
2018-01-17T20:25:24.020Z,3.53
2018-01-17T20:27:52.261Z,2.87
2018-01-17T20:30:19.686Z,2.37
2018-01-17T20:32:47.875Z,1.83
2018-01-17T20:35:15.357Z,1.87
2018-01-17T20:37:42.825Z,2.23
2018-01-17T20:40:10.247Z,2.10
2018-01-17T20:42:37.679Z,2.10
2018-01-17T20:45:05.116Z,1.73
2018-01-17T20:47:32.548Z,2.13
2018-01-17T20:50:00.023Z,1.80
2018-01-17T20:52:27.556Z,2.00
2018-01-17T20:54:55.797Z,1.97
2018-01-17T20:57:23.226Z,2.20
2018-01-17T20:59:51.419Z,2.30
2018-01-17T21:02:19.611Z,2.50
2018-01-17T21:04:47.844Z,2.40
2018-01-17T21:07:15.304Z,2.20
2018-01-17T21:09:43.498Z,2.47
2018-01-17T21:12:11.699Z,2.70
2018-01-17T21:14:39.942Z,5.97
2018-01-17T21:17:07.367Z,3.80
2018-01-17T21:19:35.621Z,2.70
2018-01-17T21:22:03.034Z,3.13
2018-01-17T21:24:31.283Z,4.27
2018-01-17T21:26:58.749Z,4.37
2018-01-17T21:29:26.205Z,3.77
2018-01-17T21:31:53.627Z,3.20
2018-01-17T21:34:21.092Z,3.00
2018-01-17T21:36:48.557Z,2.93
2018-01-17T21:39:16.734Z,3.10
2018-01-17T21:41:44.162Z,3.70
2018-01-17T21:44:17.332Z,3.23
2018-01-17T21:46:45.535Z,3.43
2018-01-17T21:49:13.722Z,3.50
2018-01-17T21:51:41.206Z,4.00
2018-01-17T21:54:08.670Z,4.50
2018-01-17T21:56:36.096Z,3.60
2018-01-17T21:59:03.564Z,4.47
2018-01-17T22:01:30.987Z,3.60
2018-01-17T22:03:58.419Z,3.37
2018-01-17T22:06:25.905Z,4.80
2018-01-17T22:08:53.331Z,6.40
2018-01-17T22:11:21.531Z,3.90
2018-01-17T22:13:49.006Z,2.60
2018-01-17T22:16:17.237Z,4.63
2018-01-17T22:18:44.654Z,3.97
2018-01-17T22:21:12.095Z,5.43
2018-01-17T22:23:39.524Z,4.43
2018-01-17T22:26:06.966Z,2.87
2018-01-17T22:28:34.390Z,5.17
2018-01-17T22:31:02.637Z,2.87
2018-01-17T22:33:30.060Z,7.20
2018-01-17T22:35:57.542Z,2.47
2018-01-17T22:38:24.924Z,3.03
2018-01-17T22:40:52.364Z,3.23
2018-01-17T22:43:19.803Z,5.77
2018-01-17T22:45:47.990Z,1.90
2018-01-17T22:48:16.199Z,3.63
2018-01-17T22:50:44.387Z,2.70
2018-01-17T22:53:12.590Z,3.40
2018-01-17T22:55:40.782Z,3.27
2018-01-17T22:58:08.991Z,4.17
2018-01-17T23:00:37.241Z,2.70
2018-01-17T23:03:05.387Z,2.00
2018-01-17T23:05:33.588Z,2.27
2018-01-17T23:08:01.792Z,2.63
2018-01-17T23:10:29.983Z,3.20
2018-01-17T23:12:58.188Z,1.80
2018-01-17T23:15:26.385Z,2.23
2018-01-17T23:17:54.587Z,1.90
2018-01-17T23:20:22.019Z,1.90
2018-01-17T23:22:49.459Z,2.10
2018-01-17T23:25:16.891Z,1.80
2018-01-17T23:27:44.326Z,2.20
2018-01-17T23:30:11.750Z,2.57
2018-01-17T23:32:39.188Z,2.03
2018-01-17T23:35:06.616Z,2.00
2018-01-17T23:37:34.059Z,1.53
2018-01-17T23:40:01.487Z,2.13
2018-01-17T23:42:28.932Z,1.93
2018-01-17T23:44:56.351Z,1.77
2018-01-17T23:47:24.551Z,2.10
2018-01-17T23:49:52.747Z,2.50
2018-01-17T23:52:20.955Z,1.73
2018-01-17T23:54:49.152Z,2.10
2018-01-17T23:57:17.360Z,2.23
2018-01-17T23:59:45.548Z,1.63
